Time;durP1;ratioP1;P1;durP2;ratioP2;P2;SDS_P1;SDS_P2;PMS_P1;PMS_P2;Temp;Humidity;BMP_temperature;BMP_pressure;BME280_temperature;BME280_humidity;BME280_pressure;Samples;Min_cycle;Max_cycle;Signal;HPM_P1;HPM_P2
2023/04/10 00:01:38;;;;;;;7.70;6.30;;;;;;;7.29;100.00;99731.13;5073434;28;20237;-78
2023/04/10 00:04:06;;;;;;;8.10;6.27;;;;;;;7.40;100.00;99736.81;5021889;28;20279;-78
2023/04/10 00:06:35;;;;;;;8.30;6.43;;;;;;;7.34;100.00;99733.59;5062382;28;20271;-77
2023/04/10 00:09:03;;;;;;;7.10;6.07;;;;;;;7.35;100.00;99730.88;5068393;28;20227;-78
2023/04/10 00:11:33;;;;;;;7.50;6.23;;;;;;;7.35;100.00;99725.63;5071021;28;20216;-78
2023/04/10 00:14:01;;;;;;;7.40;6.00;;;;;;;7.25;100.00;99737.47;5073524;28;20266;-78
2023/04/10 00:16:29;;;;;;;8.10;6.90;;;;;;;7.16;100.00;99743.09;5067166;28;20204;-78
2023/04/10 00:18:58;;;;;;;8.07;6.43;;;;;;;7.22;100.00;99740.19;5069358;28;20264;-78
2023/04/10 00:21:26;;;;;;;8.77;6.30;;;;;;;7.21;100.00;99743.75;5062676;28;20193;-77
2023/04/10 00:23:55;;;;;;;7.93;5.90;;;;;;;7.24;100.00;99746.28;5068024;28;20212;-78
2023/04/10 00:26:25;;;;;;;7.63;6.20;;;;;;;7.25;100.00;99741.88;5070611;28;20231;-78
2023/04/10 00:28:55;;;;;;;7.47;5.53;;;;;;;7.36;100.00;99744.91;5068952;28;20415;-78
2023/04/10 00:31:23;;;;;;;8.13;6.33;;;;;;;7.28;100.00;99732.06;5068679;28;20208;-78
2023/04/10 00:33:51;;;;;;;7.53;6.07;;;;;;;7.12;100.00;99742.34;5072064;28;20242;-78
2023/04/10 00:36:20;;;;;;;7.80;6.30;;;;;;;7.11;100.00;99743.28;5073708;28;20188;-78
2023/04/10 00:38:49;;;;;;;8.07;5.87;;;;;;;7.22;100.00;99742.84;5073322;28;20224;-78
2023/04/10 00:41:17;;;;;;;9.77;7.20;;;;;;;7.15;100.00;99741.41;5070161;28;20648;-78
2023/04/10 00:43:45;;;;;;;6.70;5.60;;;;;;;6.96;100.00;99745.69;5070253;28;20246;-78
2023/04/10 00:46:16;;;;;;;7.33;6.10;;;;;;;7.04;100.00;99751.47;5067703;28;20247;-78
2023/04/10 00:48:45;;;;;;;7.70;6.37;;;;;;;6.97;100.00;99740.34;5066323;28;20204;-78
2023/04/10 00:51:13;;;;;;;8.00;6.27;;;;;;;7.00;100.00;99747.25;5073180;28;20247;-78
2023/04/10 00:53:41;;;;;;;9.77;6.20;;;;;;;7.00;100.00;99739.38;5069950;28;20217;-78
2023/04/10 00:56:11;;;;;;;8.13;6.60;;;;;;;7.01;100.00;99752.47;5068436;28;20246;-78
2023/04/10 00:58:39;;;;;;;7.90;6.10;;;;;;;6.98;100.00;99749.09;5070184;28;20258;-78
2023/04/10 01:01:08;;;;;;;8.40;6.00;;;;;;;6.95;100.00;99749.22;5072890;28;20249;-78
2023/04/10 01:03:39;;;;;;;7.57;5.93;;;;;;;6.86;100.00;99755.72;5071492;28;20228;-77
2023/04/10 01:06:17;;;;;;;8.63;6.90;;;;;;;6.89;100.00;99742.44;5070260;28;20263;-77
2023/04/10 01:08:53;;;;;;;7.70;5.87;;;;;;;7.04;100.00;99746.22;5072774;28;20195;-78
2023/04/10 01:11:30;;;;;;;7.77;6.03;;;;;;;6.68;100.00;99746.75;5072598;28;20356;-78
2023/04/10 01:14:07;;;;;;;9.50;6.90;;;;;;;6.66;100.00;99745.09;5066899;28;20224;-78
2023/04/10 01:16:42;;;;;;;9.03;7.00;;;;;;;6.78;100.00;99737.59;5066072;28;20250;-78
2023/04/10 01:19:29;;;;;;;10.07;6.63;;;;;;;6.67;100.00;99742.41;5071512;28;20187;-77
2023/04/10 01:21:59;;;;;;;9.03;6.60;;;;;;;6.72;100.00;99737.81;5072668;28;20197;-80
2023/04/10 01:24:48;;;;;;;9.47;6.20;;;;;;;6.81;100.00;99744.50;5072719;28;20200;-78
2023/04/10 01:27:34;;;;;;;7.17;5.80;;;;;;;6.61;100.00;99737.38;5072512;28;20195;-77
2023/04/10 01:30:06;;;;;;;7.40;6.30;;;;;;;6.63;100.00;99732.06;5064704;28;20208;-78
2023/04/10 01:32:36;;;;;;;8.90;6.90;;;;;;;6.67;100.00;99739.78;5068193;28;20217;-77
2023/04/10 01:35:07;;;;;;;9.07;6.57;;;;;;;6.53;100.00;99736.81;5072513;28;20196;-78
2023/04/10 01:37:40;;;;;;;8.70;6.53;;;;;;;6.60;100.00;99740.94;5069309;28;20200;-79
2023/04/10 01:40:14;;;;;;;8.80;6.27;;;;;;;6.64;100.00;99731.13;5069754;28;20200;-79
2023/04/10 01:42:50;;;;;;;9.07;7.23;;;;;;;6.62;100.00;99730.34;5064386;28;20245;-79
2023/04/10 01:45:25;;;;;;;8.43;6.60;;;;;;;6.64;100.00;99726.72;5072538;28;20249;-79
2023/04/10 01:47:54;;;;;;;8.50;6.57;;;;;;;6.59;100.00;99726.06;5067017;28;20258;-78
2023/04/10 01:50:23;;;;;;;9.83;7.27;;;;;;;6.53;100.00;99719.25;5072347;28;20196;-78
2023/04/10 01:52:52;;;;;;;9.93;7.50;;;;;;;6.53;100.00;99731.53;5069374;28;20234;-78
2023/04/10 01:55:21;;;;;;;9.23;7.00;;;;;;;6.57;100.00;99726.13;5069357;28;20192;-78
2023/04/10 01:57:50;;;;;;;7.60;6.17;;;;;;;6.49;100.00;99715.03;5073392;28;20661;-79
2023/04/10 02:00:20;;;;;;;7.93;6.37;;;;;;;6.44;100.00;99721.38;5073067;28;20200;-78
2023/04/10 02:02:49;;;;;;;8.10;6.20;;;;;;;6.38;100.00;99725.13;5064407;28;20310;-78
2023/04/10 02:05:18;;;;;;;8.60;6.67;;;;;;;6.29;100.00;99718.41;5069421;28;20223;-78
2023/04/10 02:07:55;;;;;;;7.53;5.83;;;;;;;6.23;100.00;99709.88;5069523;28;20189;-79
2023/04/10 02:10:37;;;;;;;7.00;5.67;;;;;;;6.45;100.00;99702.88;5066136;28;20270;-78
2023/04/10 02:13:07;;;;;;;7.93;6.23;;;;;;;6.54;100.00;99704.31;5068972;28;20208;-78
2023/04/10 02:15:37;;;;;;;6.17;5.03;;;;;;;6.44;100.00;99700.31;5066852;28;20196;-78
2023/04/10 02:18:07;;;;;;;7.33;5.70;;;;;;;6.31;100.00;99706.06;5067248;28;20274;-78
2023/04/10 02:20:36;;;;;;;8.10;6.30;;;;;;;6.25;100.00;99706.28;5067084;28;20254;-78
2023/04/10 02:23:05;;;;;;;7.73;6.07;;;;;;;6.27;100.00;99696.59;5072206;28;20200;-78
2023/04/10 02:25:33;;;;;;;7.77;6.33;;;;;;;6.29;100.00;99700.00;5071218;28;20204;-78
2023/04/10 02:28:04;;;;;;;7.53;6.17;;;;;;;6.21;100.00;99703.84;5072770;28;20193;-78
2023/04/10 02:30:33;;;;;;;7.33;6.53;;;;;;;6.16;100.00;99696.09;5072606;28;20222;-78
2023/04/10 02:33:03;;;;;;;7.30;5.77;;;;;;;6.12;100.00;99694.50;5071453;28;20291;-78
2023/04/10 02:35:31;;;;;;;8.70;6.13;;;;;;;6.07;100.00;99701.69;5071425;28;20226;-78
2023/04/10 02:38:00;;;;;;;7.73;5.87;;;;;;;5.96;100.00;99693.34;5070665;28;20251;-78
2023/04/10 02:40:28;;;;;;;8.13;6.27;;;;;;;5.93;100.00;99702.22;5069339;28;20200;-78
2023/04/10 02:42:57;;;;;;;8.83;6.27;;;;;;;5.79;100.00;99700.94;5075483;28;20196;-77
2023/04/10 02:45:25;;;;;;;8.07;6.67;;;;;;;5.69;100.00;99701.31;5071490;28;20193;-78
2023/04/10 02:47:53;;;;;;;8.70;6.43;;;;;;;5.74;100.00;99701.13;5071494;28;20200;-78
2023/04/10 02:50:22;;;;;;;8.63;6.43;;;;;;;5.81;100.00;99701.78;5059575;28;20196;-79
2023/04/10 02:52:51;;;;;;;9.20;7.10;;;;;;;5.81;100.00;99699.16;5067879;28;20455;-79
2023/04/10 02:55:19;;;;;;;8.83;6.50;;;;;;;5.88;100.00;99700.63;5075388;28;20554;-78
2023/04/10 02:57:47;;;;;;;9.53;6.77;;;;;;;5.64;100.00;99695.34;5068887;28;20667;-78
2023/04/10 03:00:18;;;;;;;9.43;6.87;;;;;;;5.71;100.00;99704.72;5069807;28;20197;-78
2023/04/10 03:02:46;;;;;;;7.57;5.67;;;;;;;5.62;100.00;99697.16;5069140;28;20232;-79
2023/04/10 03:05:14;;;;;;;8.80;6.20;;;;;;;5.47;100.00;99698.56;5066859;28;20274;-79
2023/04/10 03:07:44;;;;;;;7.57;5.67;;;;;;;5.43;100.00;99696.94;5075099;28;20208;-78
2023/04/10 03:10:13;;;;;;;7.43;5.67;;;;;;;5.37;100.00;99702.41;5075138;28;20200;-78
2023/04/10 03:12:41;;;;;;;6.70;5.40;;;;;;;5.46;100.00;99707.34;5075112;28;20188;-78
2023/04/10 03:15:10;;;;;;;7.73;6.27;;;;;;;5.38;100.00;99700.63;5071718;28;20200;-78
2023/04/10 03:17:38;;;;;;;7.33;6.03;;;;;;;5.53;100.00;99704.53;5066128;28;20659;-78
2023/04/10 03:20:09;;;;;;;8.13;5.60;;;;;;;5.54;100.00;99696.56;5074773;28;20200;-79
2023/04/10 03:22:37;;;;;;;7.20;5.80;;;;;;;5.50;100.00;99702.88;5072133;28;20200;-78
2023/04/10 03:25:08;;;;;;;6.90;5.67;;;;;;;5.29;100.00;99691.28;5060439;28;20200;-78
2023/04/10 03:27:36;;;;;;;7.30;5.57;;;;;;;5.45;100.00;99692.50;5069447;28;20196;-78
2023/04/10 03:30:05;;;;;;;8.80;5.77;;;;;;;5.44;100.00;99689.94;5069184;28;20204;-78
2023/04/10 03:32:34;;;;;;;7.97;5.70;;;;;;;5.40;100.00;99693.56;5073457;28;20196;-78
2023/04/10 03:35:02;;;;;;;6.70;5.57;;;;;;;5.40;100.00;99681.31;5073713;28;20737;-78
2023/04/10 03:37:30;;;;;;;7.23;5.73;;;;;;;5.27;100.00;99679.13;5070818;28;20196;-78
2023/04/10 03:39:58;;;;;;;7.27;5.57;;;;;;;5.22;100.00;99673.19;5068864;28;20667;-77
2023/04/10 03:42:28;;;;;;;8.83;6.60;;;;;;;5.51;100.00;99675.69;5068024;28;20192;-78
2023/04/10 03:44:56;;;;;;;9.03;6.30;;;;;;;5.49;100.00;99660.84;5066728;28;20253;-78
2023/04/10 03:47:24;;;;;;;10.40;7.00;;;;;;;5.56;100.00;99665.00;5072657;28;20658;-78
2023/04/10 03:49:53;;;;;;;8.27;6.20;;;;;;;5.53;100.00;99658.09;5074220;28;20203;-78
2023/04/10 03:52:21;;;;;;;7.97;6.40;;;;;;;5.56;100.00;99662.38;5074134;28;20193;-78
2023/04/10 03:54:50;;;;;;;8.77;6.20;;;;;;;5.40;100.00;99665.53;5068760;28;20212;-78
2023/04/10 03:57:20;;;;;;;7.43;5.93;;;;;;;5.32;100.00;99662.31;5067900;28;20204;-78
2023/04/10 03:59:50;;;;;;;8.93;5.93;;;;;;;5.23;100.00;99667.03;5074269;28;20226;-78
2023/04/10 04:02:18;;;;;;;9.83;6.23;;;;;;;5.28;100.00;99665.09;5065130;28;20220;-78
2023/04/10 04:04:48;;;;;;;8.90;6.70;;;;;;;5.26;100.00;99664.28;5071021;28;20650;-78
2023/04/10 04:07:16;;;;;;;9.17;6.93;;;;;;;5.28;100.00;99659.84;5063381;28;20243;-78
2023/04/10 04:09:45;;;;;;;9.80;6.30;;;;;;;5.27;100.00;99664.22;5066031;28;20250;-78
2023/04/10 04:12:13;;;;;;;7.97;5.83;;;;;;;5.13;100.00;99669.13;5064734;28;20219;-78
2023/04/10 04:14:42;;;;;;;9.43;6.80;;;;;;;5.17;100.00;99661.06;5073674;28;20278;-78
2023/04/10 04:17:14;;;;;;;10.07;6.43;;;;;;;5.10;100.00;99653.44;5069535;28;20199;-78
2023/04/10 04:19:42;;;;;;;8.47;6.77;;;;;;;5.03;100.00;99662.47;5068795;28;20196;-78
2023/04/10 04:22:10;;;;;;;6.90;6.17;;;;;;;5.09;100.00;99664.84;5070852;28;20245;-78
2023/04/10 04:24:39;;;;;;;7.70;5.97;;;;;;;4.88;100.00;99666.44;5068350;28;20199;-78
2023/04/10 04:27:08;;;;;;;8.20;6.60;;;;;;;5.11;100.00;99666.50;5067989;28;20318;-78
2023/04/10 04:29:36;;;;;;;8.80;6.43;;;;;;;4.95;100.00;99661.84;5073379;28;20246;-78
2023/04/10 04:32:04;;;;;;;7.17;5.77;;;;;;;4.94;100.00;99668.00;5069237;28;20262;-78
2023/04/10 04:34:35;;;;;;;9.40;6.77;;;;;;;4.86;100.00;99669.09;5073289;28;20216;-78
2023/04/10 04:37:04;;;;;;;7.97;6.23;;;;;;;4.79;100.00;99664.09;5068886;28;20200;-78
2023/04/10 04:39:32;;;;;;;9.33;6.40;;;;;;;4.82;100.00;99671.84;5070268;28;20203;-78
2023/04/10 04:42:03;;;;;;;10.63;7.33;;;;;;;4.86;100.00;99668.25;5070293;28;20201;-78
2023/04/10 04:44:31;;;;;;;8.63;6.83;;;;;;;4.93;100.00;99675.03;5067971;28;20238;-78
2023/04/10 04:46:59;;;;;;;15.23;9.80;;;;;;;4.93;100.00;99676.78;5066144;28;20204;-77
2023/04/10 04:49:28;;;;;;;14.77;10.63;;;;;;;5.04;100.00;99672.91;5069740;28;20250;-78
2023/04/10 04:51:57;;;;;;;19.60;14.20;;;;;;;5.08;100.00;99674.50;5069929;28;20211;-77
2023/04/10 04:54:25;;;;;;;19.93;13.57;;;;;;;4.96;100.00;99674.91;5072910;28;20246;-78
2023/04/10 04:56:53;;;;;;;21.33;14.07;;;;;;;5.03;100.00;99672.94;5068620;28;20222;-78
2023/04/10 04:59:21;;;;;;;23.10;15.53;;;;;;;4.95;100.00;99667.09;5069858;28;20204;-78
2023/04/10 05:01:50;;;;;;;22.10;14.43;;;;;;;5.00;100.00;99667.78;5066045;28;20659;-78
2023/04/10 05:04:19;;;;;;;24.83;15.47;;;;;;;5.13;100.00;99669.97;5072708;28;20279;-79
2023/04/10 05:06:47;;;;;;;21.37;14.33;;;;;;;5.05;100.00;99669.38;5070062;28;20232;-78
2023/04/10 05:09:17;;;;;;;18.37;12.50;;;;;;;5.07;100.00;99671.94;5072949;28;20193;-78
2023/04/10 05:11:45;;;;;;;15.27;10.63;;;;;;;5.02;100.00;99669.47;5072751;28;20200;-78
2023/04/10 05:14:13;;;;;;;14.13;10.47;;;;;;;5.02;100.00;99676.47;5072701;28;20223;-79
2023/04/10 05:16:43;;;;;;;14.33;10.17;;;;;;;5.11;100.00;99671.75;5068139;28;20199;-78
2023/04/10 05:19:11;;;;;;;14.23;9.33;;;;;;;5.20;100.00;99680.25;5069944;28;20242;-78
2023/04/10 05:21:40;;;;;;;12.77;8.90;;;;;;;5.15;100.00;99677.78;5072699;28;20196;-78
2023/04/10 05:24:08;;;;;;;12.53;9.33;;;;;;;5.25;100.00;99680.97;5072823;28;20196;-78
2023/04/10 05:26:39;;;;;;;12.67;8.67;;;;;;;5.30;100.00;99682.50;5067681;28;20685;-78
2023/04/10 05:29:08;;;;;;;11.53;8.10;;;;;;;5.36;100.00;99678.81;5072501;28;20200;-78
2023/04/10 05:31:36;;;;;;;10.93;7.87;;;;;;;5.46;100.00;99675.81;5072595;28;20245;-79
2023/04/10 05:34:05;;;;;;;11.00;8.33;;;;;;;5.66;100.00;99677.75;5071791;28;20203;-78
2023/04/10 05:36:33;;;;;;;11.97;8.30;;;;;;;5.71;100.00;99677.59;5065706;28;20651;-78
2023/04/10 05:39:01;;;;;;;9.20;7.10;;;;;;;5.77;100.00;99689.63;5063552;28;20200;-78
2023/04/10 05:41:29;;;;;;;10.63;7.33;;;;;;;5.72;100.00;99685.41;5072741;28;20197;-77
2023/04/10 05:43:59;;;;;;;11.50;8.13;;;;;;;5.81;100.00;99689.50;5072306;28;20191;-78
2023/04/10 05:46:27;;;;;;;10.30;7.83;;;;;;;5.85;100.00;99690.22;5065296;28;20254;-78
2023/04/10 05:48:56;;;;;;;14.77;9.27;;;;;;;5.89;100.00;99682.19;5068517;28;20283;-79
2023/04/10 05:51:25;;;;;;;10.40;8.00;;;;;;;6.04;100.00;99678.16;5069354;28;20204;-79
2023/04/10 05:53:53;;;;;;;10.17;7.93;;;;;;;6.13;100.00;99684.84;5067825;28;20196;-78
2023/04/10 05:56:21;;;;;;;10.07;7.83;;;;;;;6.27;100.00;99680.81;5072142;28;20216;-78
2023/04/10 05:58:49;;;;;;;11.00;8.13;;;;;;;6.38;100.00;99680.38;5073774;28;20624;-78
2023/04/10 06:01:19;;;;;;;10.47;8.20;;;;;;;6.65;100.00;99685.47;5071045;28;20207;-78
2023/04/10 06:03:47;;;;;;;12.70;9.40;;;;;;;6.57;100.00;99691.06;5070357;28;20706;-79
2023/04/10 06:06:17;;;;;;;12.83;9.40;;;;;;;7.12;100.00;99684.41;5069964;28;20204;-78
2023/04/10 06:08:45;;;;;;;12.17;9.43;;;;;;;7.31;100.00;99673.94;5070954;28;20201;-79
2023/04/10 06:11:14;;;;;;;12.63;9.53;;;;;;;7.54;100.00;99675.63;5073508;28;20196;-79
2023/04/10 06:13:42;;;;;;;12.47;8.83;;;;;;;7.71;100.00;99674.88;5076270;28;20192;-78
2023/04/10 06:16:11;;;;;;;12.70;9.70;;;;;;;7.89;100.00;99666.13;5064899;28;20216;-78
2023/04/10 06:18:41;;;;;;;12.90;9.37;;;;;;;7.98;100.00;99672.78;5068236;28;20196;-78
2023/04/10 06:21:10;;;;;;;13.07;10.00;;;;;;;7.91;100.00;99666.94;5068157;28;20652;-78
2023/04/10 06:23:38;;;;;;;12.57;9.13;;;;;;;8.10;100.00;99663.44;5070957;28;20192;-79
2023/04/10 06:26:06;;;;;;;12.17;9.20;;;;;;;8.23;100.00;99665.47;5072132;28;20203;-79
2023/04/10 06:28:35;;;;;;;13.30;9.63;;;;;;;8.26;100.00;99662.69;5073142;28;20249;-79
2023/04/10 06:31:06;;;;;;;14.00;9.77;;;;;;;8.32;100.00;99661.56;5071003;28;20346;-79
2023/04/10 06:33:35;;;;;;;14.03;9.57;;;;;;;8.48;100.00;99659.91;5039823;28;20196;-78
2023/04/10 06:36:06;;;;;;;12.57;9.33;;;;;;;8.59;100.00;99656.78;5071668;28;20258;-78
2023/04/10 06:38:36;;;;;;;14.23;9.83;;;;;;;8.63;100.00;99658.34;5072912;28;20207;-78
2023/04/10 06:41:06;;;;;;;12.63;8.90;;;;;;;8.70;100.00;99659.78;5069700;28;20200;-78
2023/04/10 06:43:35;;;;;;;12.73;9.63;;;;;;;8.73;100.00;99658.75;5070534;28;20196;-78
2023/04/10 06:46:04;;;;;;;13.27;9.60;;;;;;;8.74;100.00;99655.19;5069817;28;20238;-79
2023/04/10 06:48:32;;;;;;;12.37;9.90;;;;;;;8.85;100.00;99666.94;5072317;28;20192;-79
2023/04/10 06:51:00;;;;;;;12.30;9.70;;;;;;;8.77;100.00;99660.31;5072141;28;20192;-79
2023/04/10 06:53:31;;;;;;;12.73;9.30;;;;;;;9.02;100.00;99657.34;5071560;28;20261;-78
2023/04/10 06:56:00;;;;;;;13.63;10.33;;;;;;;9.10;100.00;99660.44;5072619;28;20216;-78
2023/04/10 06:58:31;;;;;;;13.93;10.13;;;;;;;9.26;100.00;99663.16;5071108;28;20279;-79
2023/04/10 07:01:03;;;;;;;12.90;9.97;;;;;;;9.30;100.00;99662.09;5069605;28;20204;-78
2023/04/10 07:03:32;;;;;;;12.70;9.83;;;;;;;9.29;100.00;99671.81;5070909;28;20278;-78
2023/04/10 07:06:02;;;;;;;13.80;9.83;;;;;;;9.36;100.00;99660.00;5067901;28;20200;-78
2023/04/10 07:08:31;;;;;;;13.30;9.73;;;;;;;9.38;100.00;99662.56;5070578;28;20211;-78
2023/04/10 07:11:00;;;;;;;13.53;9.90;;;;;;;9.50;100.00;99671.66;5070721;28;20200;-78
2023/04/10 07:13:28;;;;;;;12.67;8.97;;;;;;;9.56;100.00;99666.06;5074925;28;20200;-78
2023/04/10 07:15:56;;;;;;;13.37;9.53;;;;;;;9.51;100.00;99660.13;5068013;28;20224;-79
2023/04/10 07:18:24;;;;;;;13.77;10.53;;;;;;;9.59;100.00;99665.88;5074014;28;20273;-78
2023/04/10 07:20:53;;;;;;;12.97;9.60;;;;;;;9.56;100.00;99652.84;5072095;28;20200;-79
2023/04/10 07:23:21;;;;;;;13.03;9.73;;;;;;;9.81;100.00;99657.69;5070996;28;20238;-78
2023/04/10 07:25:51;;;;;;;12.77;9.73;;;;;;;9.87;100.00;99652.94;5071792;28;20245;-78
2023/04/10 07:28:21;;;;;;;12.63;9.60;;;;;;;10.00;100.00;99656.63;5069163;28;20226;-79
2023/04/10 07:30:50;;;;;;;13.83;9.57;;;;;;;10.03;100.00;99653.78;5071685;28;20199;-78
2023/04/10 07:33:18;;;;;;;12.07;9.00;;;;;;;10.06;100.00;99654.59;5066523;28;20655;-79
2023/04/10 07:35:47;;;;;;;11.77;9.00;;;;;;;10.23;100.00;99654.53;5066314;28;20219;-79
2023/04/10 07:38:18;;;;;;;11.17;8.97;;;;;;;10.38;100.00;99647.56;5074479;28;20197;-79
2023/04/10 07:40:47;;;;;;;11.60;9.17;;;;;;;10.51;100.00;99656.53;5065067;28;20197;-78
2023/04/10 07:43:16;;;;;;;11.50;9.37;;;;;;;10.50;100.00;99653.03;5074117;28;20652;-79
2023/04/10 07:45:45;;;;;;;11.47;9.30;;;;;;;10.36;100.00;99650.31;4971769;28;20480;-79
2023/04/10 07:48:13;;;;;;;10.77;8.57;;;;;;;10.53;100.00;99646.72;5069784;28;20266;-78
2023/04/10 07:50:41;;;;;;;12.03;9.27;;;;;;;10.52;100.00;99642.38;5070600;28;20196;-79
2023/04/10 07:53:10;;;;;;;13.53;9.27;;;;;;;10.50;100.00;99644.22;5074255;28;20200;-78
2023/04/10 07:55:39;;;;;;;13.40;9.70;;;;;;;10.70;100.00;99643.97;5068956;28;20257;-79
2023/04/10 07:58:07;;;;;;;10.30;8.40;;;;;;;10.88;100.00;99639.41;5074372;28;20203;-79
2023/04/10 08:00:38;;;;;;;11.63;9.03;;;;;;;10.93;100.00;99637.34;5066184;28;20227;-79
2023/04/10 08:03:07;;;;;;;12.37;9.27;;;;;;;11.04;100.00;99640.25;5072939;28;20216;-79
2023/04/10 08:05:35;;;;;;;12.77;9.30;;;;;;;10.94;100.00;99627.63;5072130;28;20250;-79
2023/04/10 08:08:05;;;;;;;10.40;8.60;;;;;;;10.96;100.00;99621.28;5070136;28;20246;-79
2023/04/10 08:10:36;;;;;;;11.67;8.77;;;;;;;11.18;100.00;99627.00;5073960;28;20205;-79
2023/04/10 08:13:04;;;;;;;10.47;8.40;;;;;;;11.25;100.00;99622.22;5068253;28;20188;-79
2023/04/10 08:15:32;;;;;;;11.07;8.80;;;;;;;11.29;100.00;99620.22;5070761;28;20196;-79
2023/04/10 08:18:02;;;;;;;9.83;8.00;;;;;;;11.39;100.00;99616.09;5066793;28;20196;-79
2023/04/10 08:20:35;;;;;;;10.93;8.80;;;;;;;11.40;100.00;99623.97;4970328;28;20223;-78
2023/04/10 08:23:04;;;;;;;10.77;8.70;;;;;;;11.58;100.00;99614.03;4972596;28;20200;-78
2023/04/10 08:25:48;;;;;;;9.77;8.30;;;;;;;11.79;100.00;99609.22;4930196;28;20204;-79
2023/04/10 08:28:16;;;;;;;10.43;8.60;;;;;;;11.79;100.00;99617.19;4972941;28;20297;-79
2023/04/10 08:30:44;;;;;;;12.03;9.40;;;;;;;11.81;99.42;99611.81;4969464;28;20266;-78
2023/04/10 08:33:14;;;;;;;11.37;8.70;;;;;;;11.90;100.00;99601.47;4971521;28;20282;-78
2023/04/10 08:35:42;;;;;;;12.53;8.80;;;;;;;12.03;97.69;99606.84;4969143;28;20200;-78
2023/04/10 08:38:10;;;;;;;10.43;8.67;;;;;;;11.87;97.02;99612.28;4997924;28;20299;-78
2023/04/10 08:40:43;;;;;;;10.80;9.00;;;;;;;11.90;97.76;99606.78;5070158;28;20723;-79
2023/04/10 08:43:11;;;;;;;11.00;8.43;;;;;;;12.24;97.04;99597.53;5068642;28;20204;-79
2023/04/10 08:45:41;;;;;;;9.23;7.67;;;;;;;12.26;95.19;99587.69;5073496;28;20199;-79
2023/04/10 08:48:11;;;;;;;10.47;8.07;;;;;;;12.39;93.80;99592.19;5062786;28;20204;-79
2023/04/10 08:50:45;;;;;;;10.23;8.13;;;;;;;12.56;91.32;99592.81;5073011;28;20196;-79
2023/04/10 08:53:15;;;;;;;10.23;7.83;;;;;;;12.50;92.17;99585.22;5070091;28;20196;-79
2023/04/10 08:55:45;;;;;;;10.33;8.57;;;;;;;12.63;90.75;99589.72;5069788;28;20242;-79
2023/04/10 08:58:14;;;;;;;10.47;8.60;;;;;;;12.73;90.73;99578.41;5072893;28;20220;-79
2023/04/10 09:00:43;;;;;;;10.33;8.30;;;;;;;12.93;90.66;99579.72;5072835;28;20250;-79
2023/04/10 09:03:12;;;;;;;11.23;9.43;;;;;;;12.77;95.92;99585.22;5062107;28;20235;-79
2023/04/10 09:05:42;;;;;;;10.13;8.63;;;;;;;13.23;96.10;99576.00;5064792;28;20211;-78
2023/04/10 09:08:11;;;;;;;10.47;8.37;;;;;;;13.27;95.03;99569.50;5065924;28;20188;-79
2023/04/10 09:10:39;;;;;;;11.17;8.60;;;;;;;13.28;93.89;99560.56;5066391;28;20631;-79
2023/04/10 09:13:08;;;;;;;10.73;8.00;;;;;;;13.79;89.50;99544.56;5067131;28;20227;-79
2023/04/10 09:15:59;;;;;;;9.60;8.10;;;;;;;13.88;86.47;99546.59;5064760;28;20204;-78
2023/04/10 09:18:42;;;;;;;9.60;8.60;;;;;;;13.90;85.45;99544.69;5064408;28;20312;-79
2023/04/10 09:21:13;;;;;;;9.13;7.73;;;;;;;14.23;83.29;99552.06;5069457;28;20204;-79
2023/04/10 09:23:43;;;;;;;10.27;7.90;;;;;;;14.07;81.21;99546.13;5021690;28;20247;-79
2023/04/10 09:26:28;;;;;;;8.40;7.10;;;;;;;14.07;84.15;99548.78;5061365;28;20204;-79
2023/04/10 09:28:58;;;;;;;8.93;7.37;;;;;;;14.13;80.72;99543.03;5072838;28;20199;-79
2023/04/10 09:31:29;;;;;;;10.03;7.33;;;;;;;14.59;81.11;99525.38;5069915;28;20253;-79
2023/04/10 09:34:12;;;;;;;8.50;7.13;;;;;;;14.23;77.75;99530.72;5070700;28;20265;-79
2023/04/10 09:36:43;;;;;;;9.27;7.57;;;;;;;14.47;77.43;99533.44;5068822;28;20220;-79
2023/04/10 09:39:12;;;;;;;8.27;7.07;;;;;;;14.08;74.06;99535.34;5060716;28;20204;-79
2023/04/10 09:41:48;;;;;;;8.30;7.30;;;;;;;14.28;73.44;99523.25;5069753;28;20199;-79
2023/04/10 09:44:20;;;;;;;6.70;6.00;;;;;;;14.43;70.23;99516.78;5021547;28;20200;-79
2023/04/10 09:46:49;;;;;;;7.50;6.33;;;;;;;14.65;68.61;99521.41;5069835;28;20196;-79
2023/04/10 09:49:17;;;;;;;8.40;6.47;;;;;;;14.69;66.37;99511.38;5072679;28;20200;-80
2023/04/10 09:51:48;;;;;;;7.03;6.30;;;;;;;14.33;68.37;99502.44;5065491;28;20223;-79
2023/04/10 09:54:16;;;;;;;8.40;6.77;;;;;;;14.36;71.45;99506.69;5074499;28;20283;-79
2023/04/10 09:56:46;;;;;;;7.33;6.13;;;;;;;14.36;70.54;99504.03;5065036;28;20193;-82
2023/04/10 09:59:14;;;;;;;7.57;6.40;;;;;;;14.27;71.19;99489.56;5035008;28;20196;-79
2023/04/10 10:01:44;;;;;;;7.03;6.17;;;;;;;14.56;70.48;99490.09;5066045;28;20197;-79
2023/04/10 10:04:16;;;;;;;7.93;6.33;;;;;;;14.56;68.70;99485.59;5048043;28;20199;-79
2023/04/10 10:06:45;;;;;;;8.17;6.97;;;;;;;14.38;70.00;99486.09;5052003;28;20307;-79
2023/04/10 10:09:15;;;;;;;7.60;6.10;;;;;;;14.63;68.32;99479.81;5049280;28;20201;-79
2023/04/10 10:11:44;;;;;;;7.13;6.30;;;;;;;14.86;66.52;99481.59;5054757;28;20201;-80
2023/04/10 10:14:18;;;;;;;6.57;5.60;;;;;;;15.01;65.77;99480.41;5054657;28;20255;-79
2023/04/10 10:16:50;;;;;;;7.20;6.50;;;;;;;15.04;64.75;99480.16;5050846;28;20200;-80
2023/04/10 10:19:24;;;;;;;8.33;6.93;;;;;;;15.13;65.89;99468.78;5043535;28;20240;-79
2023/04/10 10:21:53;;;;;;;8.10;7.27;;;;;;;15.39;65.30;99460.56;5042236;28;20651;-79
2023/04/10 10:24:25;;;;;;;6.43;5.70;;;;;;;15.39;65.13;99458.75;5045354;28;20205;-80
2023/04/10 10:26:56;;;;;;;7.20;5.90;;;;;;;15.29;63.13;99464.94;5051942;28;20197;-79
2023/04/10 10:29:24;;;;;;;7.77;5.97;;;;;;;15.81;62.77;99448.28;5044749;28;20201;-79
2023/04/10 10:31:53;;;;;;;7.77;5.50;;;;;;;16.01;61.09;99446.66;5042878;28;20239;-80
2023/04/10 10:34:22;;;;;;;6.77;5.70;;;;;;;15.78;59.80;99437.88;5052068;28;20205;-80
2023/04/10 10:36:53;;;;;;;7.57;6.13;;;;;;;15.86;61.86;99442.59;5052034;28;20193;-80
2023/04/10 10:39:41;;;;;;;9.13;6.97;;;;;;;15.43;63.29;99417.47;5048097;28;20197;-79
2023/04/10 10:42:18;;;;;;;6.57;5.83;;;;;;;15.78;60.70;99412.97;5051482;28;20560;-79
2023/04/10 10:45:03;;;;;;;5.80;5.20;;;;;;;16.13;58.44;99407.44;5049500;28;20196;-79
2023/04/10 10:47:34;;;;;;;6.67;5.93;;;;;;;16.10;57.92;99410.34;5046951;28;20193;-79
2023/04/10 10:50:03;;;;;;;6.07;5.30;;;;;;;16.20;57.95;99400.56;5048906;28;20615;-79
2023/04/10 10:52:43;;;;;;;5.83;5.17;;;;;;;15.90;58.86;99398.63;5051047;28;20399;-79
2023/04/10 10:55:36;;;;;;;5.27;4.60;;;;;;;16.53;59.19;99399.59;5050921;28;20231;-80
2023/04/10 10:58:07;;;;;;;6.37;5.27;;;;;;;16.34;57.59;99402.97;5052297;28;20213;-79
2023/04/10 11:01:17;;;;;;;5.57;4.93;;;;;;;16.33;55.82;99393.25;5050610;28;20205;-80
2023/04/10 11:03:46;;;;;;;5.93;4.80;;;;;;;15.95;56.98;99386.59;5051055;28;20699;-79
2023/04/10 11:06:18;;;;;;;6.57;5.43;;;;;;;16.10;57.42;99388.94;5048477;28;20239;-79
2023/04/10 11:08:47;;;;;;;5.70;5.20;;;;;;;15.99;57.79;99385.34;5055410;28;20193;-79
2023/04/10 11:11:20;;;;;;;5.93;5.33;;;;;;;16.11;57.90;99383.47;5048213;28;20197;-79
2023/04/10 11:14:17;;;;;;;5.57;4.90;;;;;;;16.34;58.79;99375.38;5047633;28;20277;-79
2023/04/10 11:16:47;;;;;;;5.23;4.73;;;;;;;16.54;57.20;99363.84;5053905;28;20204;-79
2023/04/10 11:19:18;;;;;;;4.60;4.10;;;;;;;16.57;54.67;99356.38;5055165;28;20213;-80
2023/04/10 11:22:14;;;;;;;5.03;4.40;;;;;;;16.93;54.04;99340.00;5052031;28;20200;-79
2023/04/10 11:25:09;;;;;;;5.00;4.50;;;;;;;17.12;53.10;99340.09;5048064;28;20209;-79
2023/04/10 11:27:40;;;;;;;5.00;4.00;;;;;;;17.21;52.42;99319.69;5051602;28;20209;-79
2023/04/10 11:30:31;;;;;;;4.97;3.93;;;;;;;16.97;51.22;99325.38;5051964;28;20205;-80
2023/04/10 11:33:02;;;;;;;4.33;3.87;;;;;;;16.77;49.35;99332.47;5053662;28;20196;-80
2023/04/10 11:35:32;;;;;;;4.40;4.00;;;;;;;16.68;50.32;99331.41;5049225;28;20201;-80
2023/04/10 11:38:16;;;;;;;4.03;3.30;;;;;;;16.84;49.51;99330.94;5054682;28;20276;-79
2023/04/10 11:41:00;;;;;;;5.00;4.10;;;;;;;17.37;49.49;99318.19;5054694;28;20229;-80
2023/04/10 11:43:31;;;;;;;4.20;3.80;;;;;;;17.80;50.07;99311.66;5054749;28;20258;-80
2023/04/10 11:46:01;;;;;;;4.20;3.80;;;;;;;18.21;48.87;99310.50;5051398;28;20640;-80